Time;durP1;ratioP1;P1;durP2;ratioP2;P2;SDS_P1;SDS_P2;PMS_P1;PMS_P2;Temp;Humidity;BMP_temperature;BMP_pressure;BME280_temperature;BME280_humidity;BME280_pressure;Samples;Min_cycle;Max_cycle;Signal;HPM_P1;HPM_P2
2022/11/23 00:01:33;;;;;;;4.43;3.05;;;;;;;11.80;71.58;98507.94;5031258;28;20039;-44
2022/11/23 00:04:02;;;;;;;6.25;3.00;;;;;;;11.78;71.66;98503.91;5031384;28;20470;-44
2022/11/23 00:06:28;;;;;;;5.90;3.33;;;;;;;12.00;70.80;98504.84;5031475;28;20037;-43
2022/11/23 00:08:54;;;;;;;5.50;2.80;;;;;;;11.94;70.70;98511.16;5031227;28;20025;-44
2022/11/23 00:11:20;;;;;;;4.35;3.03;;;;;;;11.95;70.83;98522.63;5031630;28;20039;-45
2022/11/23 00:13:46;;;;;;;5.47;3.78;;;;;;;11.94;70.96;98511.16;5031495;28;20113;-44
2022/11/23 00:16:14;;;;;;;10.30;5.90;;;;;;;11.80;70.27;98518.59;5031268;28;20025;-46
2022/11/23 00:18:40;;;;;;;12.60;6.10;;;;;;;11.91;70.61;98515.09;5031101;28;20025;-43
2022/11/23 00:21:11;;;;;;;9.68;4.72;;;;;;;11.54;72.04;98506.72;5031194;28;20022;-44
2022/11/23 00:23:37;;;;;;;12.55;5.85;;;;;;;11.58;71.30;98497.19;5030995;28;20060;-44
2022/11/23 00:26:03;;;;;;;9.88;5.75;;;;;;;11.66;71.38;98504.78;5031135;28;20029;-46
2022/11/23 00:28:29;;;;;;;11.13;6.30;;;;;;;11.73;71.01;98509.97;5031096;28;20033;-44
2022/11/23 00:30:54;;;;;;;15.90;7.07;;;;;;;11.88;70.20;98510.22;5031206;28;20033;-43
2022/11/23 00:33:19;;;;;;;14.13;6.57;;;;;;;11.84;69.80;98500.28;5030748;28;20025;-43
2022/11/23 00:35:45;;;;;;;12.10;6.93;;;;;;;11.63;70.03;98496.47;5031085;28;20103;-43
2022/11/23 00:38:11;;;;;;;11.43;7.30;;;;;;;11.69;70.17;98477.69;5030886;28;20029;-44
2022/11/23 00:40:36;;;;;;;12.25;7.40;;;;;;;11.89;68.96;98474.53;5030763;28;20029;-44
2022/11/23 00:43:02;;;;;;;12.25;7.55;;;;;;;11.69;69.66;98488.34;5030779;28;20021;-43
2022/11/23 00:45:27;;;;;;;9.43;5.82;;;;;;;11.67;71.32;98489.59;5030835;28;20150;-44
2022/11/23 00:47:53;;;;;;;12.18;5.07;;;;;;;11.54;72.73;98480.09;5030832;28;20083;-43
2022/11/23 00:50:18;;;;;;;7.85;4.80;;;;;;;11.48;72.27;98470.38;5030854;28;20025;-43
2022/11/23 00:52:43;;;;;;;9.23;5.55;;;;;;;11.40;74.22;98471.56;5030586;28;20030;-43
2022/11/23 00:55:09;;;;;;;7.38;4.70;;;;;;;11.31;75.52;98476.50;5030867;28;20025;-44
2022/11/23 00:57:34;;;;;;;7.75;4.43;;;;;;;11.25;75.86;98477.44;5030571;28;20021;-46
2022/11/23 01:00:00;;;;;;;7.97;4.85;;;;;;;11.62;74.51;98476.22;5030083;28;20105;-45
2022/11/23 01:02:25;;;;;;;9.13;4.90;;;;;;;11.73;74.58;98465.47;5030592;28;20025;-46
2022/11/23 01:04:51;;;;;;;10.50;5.57;;;;;;;11.85;75.78;98467.25;5030430;28;20025;-44
2022/11/23 01:07:16;;;;;;;7.45;4.28;;;;;;;11.74;74.74;98464.41;5030450;28;20052;-46
2022/11/23 01:09:42;;;;;;;8.57;4.78;;;;;;;11.59;77.23;98460.69;5030522;28;20477;-45
2022/11/23 01:12:07;;;;;;;7.75;4.97;;;;;;;11.47;76.90;98450.13;5030458;28;20032;-45
2022/11/23 01:14:33;;;;;;;9.48;4.80;;;;;;;11.17;79.94;98426.41;5030324;28;20025;-45
2022/11/23 01:16:58;;;;;;;7.07;4.30;;;;;;;11.11;80.42;98422.84;5030518;28;20500;-45
2022/11/23 01:19:24;;;;;;;6.70;4.43;;;;;;;10.86;83.32;98421.34;5030458;28;20033;-45
2022/11/23 01:21:49;;;;;;;5.93;4.30;;;;;;;10.75;83.72;98419.53;5030333;28;20064;-47
2022/11/23 01:24:20;;;;;;;7.00;4.30;;;;;;;10.88;83.94;98421.09;5030424;28;20044;-46
2022/11/23 01:26:50;;;;;;;7.85;4.18;;;;;;;10.79;85.35;98412.69;5030523;28;20437;-47
2022/11/23 01:29:15;;;;;;;8.82;4.10;;;;;;;10.50;87.14;98363.97;5030303;28;20029;-45
2022/11/23 01:31:41;;;;;;;6.75;4.22;;;;;;;10.37;88.53;98349.09;5029859;28;20026;-44
2022/11/23 01:34:06;;;;;;;10.15;4.30;;;;;;;10.54;87.99;98347.28;5029924;28;20057;-47
2022/11/23 01:36:33;;;;;;;10.52;4.10;;;;;;;10.48;89.50;98350.91;5029552;28;20041;-48
2022/11/23 01:39:01;;;;;;;7.35;4.20;;;;;;;10.66;88.93;98363.25;5029774;28;20096;-45
2022/11/23 01:41:29;;;;;;;8.38;4.10;;;;;;;10.64;88.45;98375.16;5029616;28;20021;-45
2022/11/23 01:43:55;;;;;;;6.30;4.03;;;;;;;10.69;88.66;98383.22;5029764;28;20021;-45
2022/11/23 01:46:21;;;;;;;8.15;4.40;;;;;;;10.99;86.51;98409.59;5029588;28;20573;-45
2022/11/23 01:48:58;;;;;;;7.70;4.30;;;;;;;11.17;86.96;98405.91;5029341;28;20105;-46
2022/11/23 01:51:36;;;;;;;10.48;4.10;;;;;;;11.24;86.81;98389.81;5029514;28;20033;-44
2022/11/23 01:54:10;;;;;;;11.05;4.60;;;;;;;11.25;86.99;98380.75;5029492;28;20030;-45
2022/11/23 01:56:39;;;;;;;9.43;4.47;;;;;;;11.50;84.63;98361.72;5029579;28;20025;-44
2022/11/23 01:59:09;;;;;;;10.63;3.93;;;;;;;11.12;85.57;98355.25;5029647;28;20024;-44
2022/11/23 02:01:35;;;;;;;7.45;4.03;;;;;;;11.23;85.76;98380.19;5029696;28;20272;-44
2022/11/23 02:04:01;;;;;;;7.38;4.18;;;;;;;11.26;85.94;98403.69;5030006;28;20068;-48
2022/11/23 02:06:28;;;;;;;7.80;4.50;;;;;;;11.43;86.50;98417.81;5030069;28;20018;-47
2022/11/23 02:08:55;;;;;;;8.43;5.20;;;;;;;11.37;85.63;98407.34;5030047;28;20026;-46
2022/11/23 02:11:20;;;;;;;7.18;5.07;;;;;;;11.47;85.35;98394.97;5029921;28;20100;-45
2022/11/23 02:13:48;;;;;;;10.38;5.53;;;;;;;11.62;85.26;98398.94;5030049;28;20192;-45
2022/11/23 02:16:16;;;;;;;7.50;4.45;;;;;;;11.41;84.49;98395.94;5030717;28;20036;-45
2022/11/23 02:18:45;;;;;;;8.00;5.30;;;;;;;11.48;85.74;98385.13;5033417;28;20029;-48
2022/11/23 02:21:11;;;;;;;12.13;7.72;;;;;;;11.59;84.23;98386.91;5033473;28;20021;-46
2022/11/23 02:23:45;;;;;;;12.65;7.57;;;;;;;11.63;84.61;98398.72;5033148;28;20052;-45
2022/11/23 02:26:19;;;;;;;12.68;8.75;;;;;;;11.29;86.83;98406.69;5033805;28;20038;-45
2022/11/23 02:28:51;;;;;;;14.40;9.23;;;;;;;11.20;86.75;98416.09;5034181;28;20397;-45
2022/11/23 02:31:17;;;;;;;14.77;9.05;;;;;;;11.29;86.18;98401.34;5034301;28;20021;-45
2022/11/23 02:33:42;;;;;;;13.35;9.43;;;;;;;10.97;86.23;98401.06;5033823;28;20026;-44
2022/11/23 02:36:41;;;;;;;14.75;9.93;;;;;;;10.83;87.21;98383.75;5033905;28;20353;-45
2022/11/23 02:39:11;;;;;;;15.50;10.05;;;;;;;10.71;87.80;98383.81;5021984;28;20072;-45
2022/11/23 02:41:43;;;;;;;16.92;10.50;;;;;;;10.84;88.21;98378.19;5033927;28;20028;-44
2022/11/23 02:44:19;;;;;;;16.00;10.27;;;;;;;10.52;89.47;98385.81;5033696;28;20021;-47
2022/11/23 02:46:45;;;;;;;16.40;10.43;;;;;;;10.61;87.51;98391.59;5033531;28;20463;-46
2022/11/23 02:49:10;;;;;;;16.85;10.90;;;;;;;10.27;88.44;98380.78;5033792;28;20025;-45
2022/11/23 02:51:36;;;;;;;17.45;10.85;;;;;;;10.35;87.09;98381.22;5033600;28;20055;-44
2022/11/23 02:54:01;;;;;;;16.50;10.63;;;;;;;10.34;86.57;98366.34;5033449;28;20185;-46
2022/11/23 02:56:26;;;;;;;17.50;10.73;;;;;;;10.31;86.01;98356.16;5033087;28;20079;-45
2022/11/23 02:58:52;;;;;;;15.02;9.93;;;;;;;10.63;84.32;98373.53;5033766;28;20033;-46
2022/11/23 03:01:17;;;;;;;16.92;10.65;;;;;;;10.45;85.48;98393.13;5033066;28;20022;-47
2022/11/23 03:03:42;;;;;;;20.40;11.45;;;;;;;10.49;85.75;98373.00;5033173;28;20542;-45
2022/11/23 03:06:08;;;;;;;15.73;10.48;;;;;;;10.44;85.76;98372.91;5033161;28;20032;-46
2022/11/23 03:08:33;;;;;;;18.30;11.13;;;;;;;10.18;85.93;98378.50;5033163;28;20110;-45
2022/11/23 03:11:00;;;;;;;15.95;10.20;;;;;;;10.22;85.67;98396.63;5033056;28;20025;-44
2022/11/23 03:13:26;;;;;;;15.55;9.75;;;;;;;10.37;85.14;98396.97;5033014;28;20446;-45
2022/11/23 03:15:55;;;;;;;16.65;10.35;;;;;;;10.13;85.10;98375.72;5032557;28;20063;-45
2022/11/23 03:18:21;;;;;;;13.40;9.32;;;;;;;9.84;85.15;98374.00;5033072;28;20068;-44
2022/11/23 03:20:46;;;;;;;13.77;9.55;;;;;;;10.01;84.21;98369.59;5033102;28;20025;-44
2022/11/23 03:23:12;;;;;;;13.30;9.25;;;;;;;10.15;83.48;98357.69;5033033;28;20037;-47
2022/11/23 03:25:37;;;;;;;12.73;9.00;;;;;;;10.22;83.62;98356.72;5033070;28;20022;-43
2022/11/23 03:28:03;;;;;;;13.65;9.63;;;;;;;10.17;84.29;98339.66;5031687;28;20030;-45
2022/11/23 03:30:30;;;;;;;11.35;8.63;;;;;;;10.42;82.69;98359.84;5032788;28;20044;-47
2022/11/23 03:32:55;;;;;;;15.23;8.63;;;;;;;10.44;81.67;98343.66;5032644;28;20488;-46
2022/11/23 03:35:21;;;;;;;12.57;9.07;;;;;;;10.37;82.46;98343.78;5032866;28;20060;-45
2022/11/23 03:37:46;;;;;;;12.48;8.80;;;;;;;10.41;82.70;98360.88;5032724;28;20482;-46
2022/11/23 03:40:12;;;;;;;13.48;8.38;;;;;;;10.41;82.37;98360.06;5032291;28;20096;-45
2022/11/23 03:42:39;;;;;;;12.23;8.23;;;;;;;10.52;81.64;98352.06;5032321;28;20079;-42
2022/11/23 03:45:05;;;;;;;11.50;8.35;;;;;;;10.60;82.02;98352.72;5032558;28;20096;-42
2022/11/23 03:47:31;;;;;;;13.50;8.77;;;;;;;10.37;82.36;98357.06;5032297;28;20025;-47
2022/11/23 03:49:56;;;;;;;13.23;8.57;;;;;;;10.60;82.00;98360.72;5042795;28;20111;-44
2022/11/23 03:52:21;;;;;;;13.35;8.27;;;;;;;10.26;82.41;98374.66;5033434;28;20116;-44
2022/11/23 03:54:47;;;;;;;12.82;8.15;;;;;;;10.13;83.42;98375.72;5037399;28;20021;-47
2022/11/23 03:57:13;;;;;;;13.65;8.10;;;;;;;10.21;83.45;98376.41;5032764;28;20013;-45
2022/11/23 03:59:38;;;;;;;11.18;8.10;;;;;;;10.21;82.96;98371.88;5034435;28;20440;-37
2022/11/23 04:02:04;;;;;;;12.52;7.85;;;;;;;9.93;83.79;98383.25;5038764;28;20032;-36
2022/11/23 04:04:30;;;;;;;11.02;8.00;;;;;;;10.15;82.77;98378.94;5052137;28;20108;-37
2022/11/23 04:06:55;;;;;;;29.33;18.48;;;;;;;10.01;83.83;98385.53;5041227;28;20055;-46
2022/11/23 04:09:21;;;;;;;16.15;9.30;;;;;;;9.69;84.14;98385.91;5032001;28;20078;-45
2022/11/23 04:11:47;;;;;;;29.48;17.88;;;;;;;10.06;83.54;98387.50;5032190;28;20469;-44
2022/11/23 04:14:12;;;;;;;17.77;10.23;;;;;;;10.22;82.27;98389.44;5031688;28;20037;-44
2022/11/23 04:16:37;;;;;;;14.02;9.10;;;;;;;10.23;83.22;98390.28;5031547;28;20018;-43
2022/11/23 04:19:03;;;;;;;12.60;8.68;;;;;;;10.27;81.63;98383.44;5032094;28;20141;-45
2022/11/23 04:21:28;;;;;;;11.88;8.07;;;;;;;10.18;82.38;98375.84;5031909;28;20022;-44
2022/11/23 04:23:54;;;;;;;14.40;7.82;;;;;;;10.08;82.02;98369.47;5031108;28;20037;-45
2022/11/23 04:26:19;;;;;;;12.82;7.57;;;;;;;10.28;81.36;98359.28;5031308;28;20104;-44
2022/11/23 04:28:44;;;;;;;11.20;7.72;;;;;;;10.36;81.79;98358.13;5031373;28;20460;-45
2022/11/23 04:31:10;;;;;;;12.82;7.70;;;;;;;10.23;80.99;98356.50;5034033;28;20477;-44
2022/11/23 04:33:35;;;;;;;12.75;7.32;;;;;;;10.29;80.90;98368.84;5030153;28;20568;-44
2022/11/23 04:36:01;;;;;;;29.25;18.77;;;;;;;10.47;80.14;98365.28;5031276;28;20109;-47
2022/11/23 04:38:26;;;;;;;25.88;15.20;;;;;;;10.33;80.78;98375.34;5031286;28;20025;-44
2022/11/23 04:40:52;;;;;;;11.98;7.28;;;;;;;10.60;80.57;98372.16;5029417;28;20109;-44
2022/11/23 04:43:17;;;;;;;10.68;7.30;;;;;;;10.58;78.65;98366.25;5030783;28;20014;-46
2022/11/23 04:45:43;;;;;;;11.98;6.70;;;;;;;10.16;82.42;98364.59;5030991;28;20452;-43
2022/11/23 04:48:09;;;;;;;9.68;6.70;;;;;;;10.24;81.42;98370.59;5030772;28;20017;-44
2022/11/23 04:50:36;;;;;;;11.13;7.15;;;;;;;10.29;80.66;98381.34;5029659;28;20025;-43
2022/11/23 04:53:02;;;;;;;12.02;6.68;;;;;;;10.30;80.51;98391.78;5029839;28;20499;-43
2022/11/23 04:55:28;;;;;;;11.52;7.03;;;;;;;10.51;79.66;98385.03;5029897;28;20029;-43
2022/11/23 04:57:53;;;;;;;9.30;6.78;;;;;;;10.37;80.19;98378.34;5029932;28;20464;-44
2022/11/23 05:00:19;;;;;;;10.27;5.88;;;;;;;10.26;80.35;98377.31;5029679;28;20064;-45
2022/11/23 05:02:44;;;;;;;9.75;6.50;;;;;;;10.47;79.83;98394.53;5029947;28;20064;-44
2022/11/23 05:05:10;;;;;;;11.05;6.68;;;;;;;10.36;79.28;98390.03;5030170;28;20025;-45
2022/11/23 05:07:35;;;;;;;10.15;6.40;;;;;;;10.41;79.48;98382.16;5030178;28;20036;-47
2022/11/23 05:10:01;;;;;;;9.13;6.00;;;;;;;10.53;79.72;98382.13;5029986;28;20135;-44
2022/11/23 05:12:26;;;;;;;26.90;16.83;;;;;;;10.65;79.27;98379.44;5030168;28;20053;-43
2022/11/23 05:14:52;;;;;;;10.48;6.78;;;;;;;10.62;79.53;98366.59;5030177;28;20444;-43
2022/11/23 05:17:17;;;;;;;9.85;6.10;;;;;;;10.86;82.65;98372.63;5030486;28;20029;-44
2022/11/23 05:19:44;;;;;;;9.55;5.95;;;;;;;10.69;79.15;98367.25;5030010;28;20017;-43
2022/11/23 05:22:09;;;;;;;9.50;5.70;;;;;;;10.45;80.02;98363.88;5030057;28;20034;-46
2022/11/23 05:24:35;;;;;;;9.30;5.60;;;;;;;10.61;79.53;98370.31;5029562;28;20142;-45
2022/11/23 05:27:00;;;;;;;6.75;5.47;;;;;;;10.39;79.48;98357.66;5029781;28;20025;-44
2022/11/23 05:29:25;;;;;;;7.65;5.50;;;;;;;10.58;79.36;98363.59;5029891;28;20115;-44
2022/11/23 05:31:51;;;;;;;9.90;5.45;;;;;;;10.72;78.71;98370.25;5029189;28;20036;-44
2022/11/23 05:34:16;;;;;;;9.43;5.55;;;;;;;10.71;79.65;98381.94;5029727;28;20082;-45
2022/11/23 05:36:42;;;;;;;8.68;5.70;;;;;;;10.76;78.98;98389.22;5027774;28;20079;-43
2022/11/23 05:39:07;;;;;;;8.75;5.97;;;;;;;10.73;79.09;98385.16;5029090;28;20029;-44
2022/11/23 05:41:32;;;;;;;10.80;5.90;;;;;;;10.88;78.68;98374.00;5029369;28;20469;-45
2022/11/23 05:43:58;;;;;;;9.00;6.15;;;;;;;10.91;79.07;98368.22;5029102;28;20059;-43
2022/11/23 05:46:23;;;;;;;10.18;6.18;;;;;;;10.85;78.34;98358.53;5028962;28;20435;-45
2022/11/23 05:48:49;;;;;;;28.77;16.17;;;;;;;10.93;78.46;98360.78;5029386;28;20037;-43
2022/11/23 05:51:14;;;;;;;8.30;5.38;;;;;;;10.87;79.21;98361.75;5029587;28;20175;-43
2022/11/23 05:53:39;;;;;;;8.38;5.40;;;;;;;10.61;79.45;98349.03;5032150;28;20469;-45
2022/11/23 05:56:05;;;;;;;9.93;5.25;;;;;;;10.96;78.41;98376.28;5032043;28;20032;-44
2022/11/23 05:58:30;;;;;;;10.65;5.38;;;;;;;10.72;79.46;98366.81;5032108;28;20030;-45
2022/11/23 06:01:00;;;;;;;8.25;5.47;;;;;;;10.92;78.37;98367.16;5032776;28;20045;-44
2022/11/23 06:03:26;;;;;;;11.50;7.15;;;;;;;10.87;78.58;98359.09;5032414;28;20118;-44
2022/11/23 06:05:51;;;;;;;10.45;6.38;;;;;;;10.98;78.39;98367.25;5032386;28;20442;-45
2022/11/23 06:08:17;;;;;;;10.82;6.18;;;;;;;11.59;76.77;98370.09;5033079;28;20048;-44
2022/11/23 06:10:42;;;;;;;9.95;5.55;;;;;;;11.76;75.40;98370.91;5032264;28;20035;-46
2022/11/23 06:13:07;;;;;;;8.63;5.55;;;;;;;12.19;73.74;98368.59;5034086;28;20025;-44
2022/11/23 06:15:33;;;;;;;8.82;5.43;;;;;;;12.41;72.73;98369.38;5033552;28;20154;-45
2022/11/23 06:18:00;;;;;;;8.90;5.55;;;;;;;12.76;70.11;98349.50;5033922;28;20379;-43
2022/11/23 06:20:25;;;;;;;13.80;8.85;;;;;;;12.88;70.15;98350.13;5033943;28;20049;-47
2022/11/23 06:22:52;;;;;;;9.77;6.53;;;;;;;13.18;69.33;98367.50;5033481;28;20072;-44
2022/11/23 06:25:18;;;;;;;10.38;5.90;;;;;;;13.21;69.17;98368.88;5033213;28;20034;-44
2022/11/23 06:27:59;;;;;;;14.63;6.68;;;;;;;13.16;68.96;98376.84;5033369;28;20068;-43
2022/11/23 06:30:26;;;;;;;10.98;6.00;;;;;;;13.30;68.19;98384.19;5032300;28;20029;-43
2022/11/23 06:32:52;;;;;;;9.88;6.15;;;;;;;13.14;69.06;98376.31;5031320;28;20033;-44
2022/11/23 06:35:17;;;;;;;12.85;6.90;;;;;;;12.97;69.98;98373.75;5031859;28;20040;-44
2022/11/23 06:37:43;;;;;;;10.52;6.60;;;;;;;12.88;70.20;98384.06;5032425;28;20070;-46
2022/11/23 06:40:10;;;;;;;11.07;6.40;;;;;;;13.11;69.46;98393.63;5032458;28;20025;-43
2022/11/23 06:42:35;;;;;;;12.80;6.78;;;;;;;13.06;69.88;98402.41;5032287;28;20539;-43
2022/11/23 06:45:01;;;;;;;11.15;6.22;;;;;;;12.67;71.55;98409.72;5032445;28;20296;-44
2022/11/23 06:47:27;;;;;;;12.88;6.55;;;;;;;13.07;69.87;98406.66;5032755;28;20021;-44
2022/11/23 06:49:52;;;;;;;11.10;6.88;;;;;;;13.01;70.54;98406.88;5032892;28;20080;-44
2022/11/23 06:52:18;;;;;;;20.60;6.80;;;;;;;12.61;71.96;98394.72;5032751;28;20108;-45
2022/11/23 06:54:44;;;;;;;13.32;6.72;;;;;;;12.83;71.56;98413.34;5032685;28;20017;-46
2022/11/23 06:57:09;;;;;;;15.05;6.68;;;;;;;12.78;71.99;98408.78;5032281;28;20048;-43
2022/11/23 06:59:35;;;;;;;12.85;7.15;;;;;;;13.03;70.53;98397.56;5032291;28;20064;-43
2022/11/23 07:02:00;;;;;;;12.80;6.80;;;;;;;13.27;70.13;98398.06;5031909;28;20033;-44
2022/11/23 07:04:25;;;;;;;12.35;6.78;;;;;;;12.65;71.96;98398.50;5032133;28;20026;-45
2022/11/23 07:06:51;;;;;;;12.90;6.57;;;;;;;13.03;71.15;98404.78;5032478;28;20024;-45
2022/11/23 07:09:16;;;;;;;13.13;7.45;;;;;;;13.21;70.46;98404.41;5032009;28;20090;-44
2022/11/23 07:11:42;;;;;;;15.48;6.97;;;;;;;13.17;70.53;98402.50;5031473;28;20040;-44
2022/11/23 07:14:07;;;;;;;15.65;7.15;;;;;;;13.40;69.64;98401.38;5030826;28;20026;-45
2022/11/23 07:16:33;;;;;;;20.13;7.43;;;;;;;13.71;68.96;98415.81;5032283;28;20033;-43
2022/11/23 07:18:58;;;;;;;11.82;7.20;;;;;;;13.79;68.52;98415.34;5032489;28;20476;-44
2022/11/23 07:21:24;;;;;;;12.75;6.97;;;;;;;14.11;67.71;98410.97;5031803;28;20025;-43
2022/11/23 07:23:49;;;;;;;14.48;7.55;;;;;;;14.30;66.76;98412.16;5031864;28;20041;-43
2022/11/23 07:26:14;;;;;;;10.55;7.03;;;;;;;14.40;66.60;98417.56;5031792;28;20029;-45
2022/11/23 07:28:40;;;;;;;16.30;7.53;;;;;;;14.34;66.48;98418.59;5031934;28;20032;-43
2022/11/23 07:31:06;;;;;;;11.85;7.47;;;;;;;14.33;66.47;98421.53;5031851;28;20052;-44
2022/11/23 07:33:31;;;;;;;13.55;7.63;;;;;;;14.57;66.83;98417.41;5031676;28;20032;-43
2022/11/23 07:36:00;;;;;;;14.82;7.93;;;;;;;14.82;65.70;98422.03;5032012;28;20386;-44
2022/11/23 07:38:25;;;;;;;16.33;8.38;;;;;;;14.99;65.18;98437.09;5031961;28;20034;-45
2022/11/23 07:40:51;;;;;;;12.27;8.43;;;;;;;14.90;64.55;98450.19;5031669;28;20524;-44
2022/11/23 07:43:16;;;;;;;13.88;8.90;;;;;;;15.04;64.31;98439.75;5032150;28;20025;-44
2022/11/23 07:45:42;;;;;;;15.70;9.55;;;;;;;14.81;65.86;98441.88;5031804;28;20420;-44
2022/11/23 07:48:08;;;;;;;15.23;9.57;;;;;;;15.04;64.66;98439.75;5032247;28;20130;-41
2022/11/23 07:50:36;;;;;;;17.05;10.23;;;;;;;15.02;65.03;98444.59;5031679;28;20029;-45
2022/11/23 07:53:06;;;;;;;17.10;10.93;;;;;;;15.16;64.44;98445.69;5031013;28;20033;-45
2022/11/23 07:55:32;;;;;;;19.35;12.23;;;;;;;15.14;64.77;98431.78;5031159;28;20037;-44
2022/11/23 07:57:58;;;;;;;17.30;10.20;;;;;;;14.83;65.78;98438.91;5031185;28;20041;-44
2022/11/23 08:00:25;;;;;;;15.40;9.65;;;;;;;14.44;67.66;98450.75;5031585;28;20032;-46
2022/11/23 08:02:51;;;;;;;18.33;9.52;;;;;;;14.38;68.67;98445.66;5030900;28;20030;-44
2022/11/23 08:05:17;;;;;;;17.17;10.75;;;;;;;14.69;67.80;98441.25;5030305;28;20044;-45
2022/11/23 08:07:43;;;;;;;20.92;10.23;;;;;;;14.90;67.20;98446.69;5031570;28;20120;-44
2022/11/23 08:10:10;;;;;;;17.73;9.77;;;;;;;14.99;67.38;98447.81;5030964;28;20112;-45
2022/11/23 08:12:35;;;;;;;16.23;9.35;;;;;;;15.07;66.85;98449.97;5031028;28;20025;-44
2022/11/23 08:15:01;;;;;;;19.13;9.60;;;;;;;15.31;66.16;98458.31;5030174;28;20025;-43
2022/11/23 08:17:26;;;;;;;15.57;9.65;;;;;;;15.57;65.96;98451.13;5030746;28;20037;-46
2022/11/23 08:19:52;;;;;;;17.48;9.82;;;;;;;15.74;64.97;98448.19;5031038;28;20035;-45
2022/11/23 08:22:17;;;;;;;19.85;9.90;;;;;;;15.69;65.00;98458.91;5031150;28;20037;-45
2022/11/23 08:24:43;;;;;;;19.10;10.07;;;;;;;15.73;64.64;98456.50;5030751;28;20062;-44
2022/11/23 08:27:08;;;;;;;16.38;9.35;;;;;;;15.80;64.33;98455.19;5030857;28;20128;-45
2022/11/23 08:29:34;;;;;;;14.95;8.60;;;;;;;15.49;65.13;98462.38;5030661;28;20022;-44
2022/11/23 08:32:00;;;;;;;15.98;8.65;;;;;;;15.52;65.16;98458.38;5031049;28;20029;-45
2022/11/23 08:34:25;;;;;;;15.45;8.30;;;;;;;15.19;66.62;98468.47;5030416;28;20412;-43
2022/11/23 08:36:50;;;;;;;15.90;8.27;;;;;;;14.85;67.10;98464.38;5029246;28;20022;-44
2022/11/23 08:39:18;;;;;;;14.90;8.30;;;;;;;14.65;68.47;98456.25;5030844;28;20025;-44
2022/11/23 08:41:43;;;;;;;13.48;8.63;;;;;;;15.30;67.17;98447.88;5030391;28;20034;-45
2022/11/23 08:44:10;;;;;;;15.88;8.25;;;;;;;15.49;65.66;98438.22;5030687;28;20078;-45
2022/11/23 08:46:36;;;;;;;15.13;8.70;;;;;;;15.88;64.49;98448.47;5030619;28;20133;-44
2022/11/23 08:49:02;;;;;;;14.95;7.68;;;;;;;15.70;64.85;98441.72;5030362;28;20033;-45
2022/11/23 08:51:28;;;;;;;15.07;8.48;;;;;;;15.62;65.05;98435.03;5030662;28;20465;-37
2022/11/23 08:53:53;;;;;;;16.25;8.13;;;;;;;15.29;66.54;98424.81;5030102;28;20041;-37
2022/11/23 08:56:18;;;;;;;12.07;7.88;;;;;;;15.78;64.33;98443.09;5030204;28;20040;-38
2022/11/23 08:58:44;;;;;;;12.25;8.05;;;;;;;15.83;65.05;98432.38;5030588;28;20033;-36
2022/11/23 09:01:12;;;;;;;15.48;8.25;;;;;;;15.67;65.12;98428.03;5030540;28;20022;-44
2022/11/23 09:03:38;;;;;;;12.60;8.20;;;;;;;15.96;63.40;98429.13;5030478;28;20039;-45
2022/11/23 09:06:03;;;;;;;13.60;8.43;;;;;;;15.72;64.48;98434.22;5030143;28;20091;-44
2022/11/23 09:08:29;;;;;;;14.63;8.70;;;;;;;15.88;64.04;98439.59;5030145;28;20476;-44
2022/11/23 09:10:59;;;;;;;20.58;9.35;;;;;;;15.70;64.27;98427.53;5030249;28;20048;-44
2022/11/23 09:13:25;;;;;;;17.92;9.20;;;;;;;15.88;63.83;98424.31;5030468;28;20096;-36
2022/11/23 09:15:50;;;;;;;12.48;8.43;;;;;;;16.24;62.38;98418.91;5029975;28;20029;-37
2022/11/23 09:18:15;;;;;;;12.43;8.50;;;;;;;15.94;63.36;98412.50;5030292;28;20027;-37
2022/11/23 09:20:41;;;;;;;16.05;8.75;;;;;;;15.87;64.11;98411.19;5030184;28;20030;-37
2022/11/23 09:23:07;;;;;;;18.90;8.25;;;;;;;16.26;62.61;98415.91;5029943;28;20575;-39
2022/11/23 09:25:33;;;;;;;25.60;8.90;;;;;;;16.41;62.25;98405.13;5031352;28;20038;-36
2022/11/23 09:27:59;;;;;;;18.08;8.50;;;;;;;16.39;62.65;98413.47;5033639;28;20017;-38
2022/11/23 09:30:26;;;;;;;15.43;8.35;;;;;;;16.51;62.07;98407.00;5033853;28;20501;-38
2022/11/23 09:32:53;;;;;;;14.45;7.70;;;;;;;16.77;60.87;98387.00;5032636;28;20018;-39
2022/11/23 09:35:19;;;;;;;11.93;8.07;;;;;;;17.09;59.94;98383.06;5034240;28;20029;-37
2022/11/23 09:37:44;;;;;;;14.75;9.00;;;;;;;17.19;59.57;98388.38;5034264;28;20079;-38
2022/11/23 09:40:16;;;;;;;15.40;8.38;;;;;;;17.32;58.92;98378.84;5034031;28;20025;-38
2022/11/23 09:43:03;;;;;;;32.63;12.80;;;;;;;16.72;59.17;98370.91;5034106;28;20038;-37
2022/11/23 09:45:56;;;;;;;18.40;9.10;;;;;;;17.15;59.10;98371.22;5034157;28;20032;-39
2022/11/23 09:48:51;;;;;;;15.80;8.85;;;;;;;17.66;58.11;98375.34;5034224;28;20021;-37
2022/11/23 09:51:19;;;;;;;13.93;8.30;;;;;;;17.81;58.01;98371.72;5033640;28;20457;-36
2022/11/23 09:53:50;;;;;;;14.88;8.25;;;;;;;17.93;57.57;98364.09;5033409;28;20025;-37
2022/11/23 09:56:20;;;;;;;11.88;7.90;;;;;;;17.84;57.60;98365.81;5033380;28;20025;-38
2022/11/23 09:58:45;;;;;;;9.88;7.35;;;;;;;17.66;57.73;98364.59;5033554;28;20079;-40
2022/11/23 10:01:14;;;;;;;10.10;7.45;;;;;;;18.07;56.67;98364.22;5033654;28;20033;-37
2022/11/23 10:03:41;;;;;;;12.55;8.13;;;;;;;18.23;56.36;98364.84;5033468;28;20095;-37
2022/11/23 10:06:28;;;;;;;12.43;8.40;;;;;;;18.41;55.50;98357.91;5033359;28;20180;-37
2022/11/23 10:09:14;;;;;;;13.02;8.77;;;;;;;18.38;55.68;98371.16;5032997;28;20029;-38
2022/11/23 10:11:47;;;;;;;22.40;11.10;;;;;;;17.88;56.25;98352.59;5033163;28;20060;-38
2022/11/23 10:14:34;;;;;;;34.47;16.98;;;;;;;16.46;60.15;98351.41;5032661;28;20105;-37
2022/11/23 10:17:18;;;;;;;18.75;10.93;;;;;;;16.96;59.41;98348.75;5033490;28;20021;-36
2022/11/23 10:20:15;;;;;;;15.32;9.65;;;;;;;17.40;58.33;98345.19;5033266;28;20172;-36
2022/11/23 10:22:50;;;;;;;15.15;8.68;;;;;;;17.95;57.03;98348.47;5033497;28;20071;-38
2022/11/23 10:25:22;;;;;;;13.45;7.82;;;;;;;18.43;55.72;98339.56;5032700;28;20420;-36
2022/11/23 10:27:50;;;;;;;10.68;7.70;;;;;;;18.73;54.67;98342.94;5033294;28;20060;-37
2022/11/23 10:30:17;;;;;;;12.80;8.23;;;;;;;18.81;54.01;98338.81;5033093;28;20030;-41
2022/11/23 10:33:04;;;;;;;12.05;8.30;;;;;;;18.94;53.99;98338.06;5032857;28;20386;-37
2022/11/23 10:35:34;;;;;;;12.82;8.20;;;;;;;19.20;52.72;98343.88;5032942;28;20039;-37
2022/11/23 10:38:13;;;;;;;12.48;8.27;;;;;;;19.28;52.89;98351.28;5031883;28;20025;-37
2022/11/23 10:40:45;;;;;;;13.30;8.23;;;;;;;19.24;53.07;98342.19;5032523;28;20036;-37
2022/11/23 10:43:20;;;;;;;15.90;8.25;;;;;;;19.23;53.38;98358.66;5032806;28;20343;-37
2022/11/23 10:45:45;;;;;;;11.95;8.45;;;;;;;19.23;53.61;98348.69;5032594;28;20025;-36
2022/11/23 10:48:11;;;;;;;13.15;9.07;;;;;;;19.19;53.36;98336.91;5033017;28;20017;-37
2022/11/23 10:50:43;;;;;;;12.25;8.32;;;;;;;18.95;54.06;98345.09;5032617;28;20041;-37
2022/11/23 10:53:08;;;;;;;13.45;8.10;;;;;;;19.00;54.46;98345.00;5032656;28;20075;-37
2022/11/23 10:55:53;;;;;;;13.90;8.73;;;;;;;19.03;54.21;98333.63;5032906;28;20452;-37
2022/11/23 10:58:39;;;;;;;13.20;8.80;;;;;;;19.66;53.00;98331.53;5032264;28;20480;-36
2022/11/23 11:01:23;;;;;;;12.73;8.70;;;;;;;19.41;52.27;98321.97;5032354;28;20458;-39
2022/11/23 11:03:49;;;;;;;14.50;8.75;;;;;;;19.31;53.19;98336.44;5032262;28;20577;-38
2022/11/23 11:06:31;;;;;;;16.38;8.70;;;;;;;19.22;53.68;98340.91;5031743;28;20069;-37
2022/11/23 11:08:59;;;;;;;13.13;8.68;;;;;;;19.30;53.76;98343.72;5032528;28;20056;-38
2022/11/23 11:11:32;;;;;;;10.73;7.50;;;;;;;18.99;54.66;98348.00;5032243;28;20025;-37
2022/11/23 11:14:15;;;;;;;12.68;7.80;;;;;;;19.24;54.02;98339.50;5032194;28;20022;-38
2022/11/23 11:16:50;;;;;;;13.35;7.90;;;;;;;19.18;53.42;98340.69;5032085;28;20021;-39
2022/11/23 11:19:30;;;;;;;14.63;7.70;;;;;;;19.32;53.94;98343.41;5031974;28;20025;-37
2022/11/23 11:21:57;;;;;;;14.82;7.82;;;;;;;19.24;53.42;98333.31;5031762;28;20025;-38
2022/11/23 11:24:43;;;;;;;17.23;7.70;;;;;;;19.48;53.10;98333.97;5032204;28;20417;-36
2022/11/23 11:27:15;;;;;;;10.70;7.22;;;;;;;19.65;52.91;98329.94;5032024;28;20056;-35
2022/11/23 11:29:44;;;;;;;10.70;7.43;;;;;;;19.69;52.23;98331.72;5032266;28;20033;-37